createdAt,value
2022-11-29T00:01:23.470Z,7.47
2022-11-29T00:03:51.841Z,6.40
2022-11-29T00:06:22.756Z,7.18
2022-11-29T00:08:51.516Z,7.10
2022-11-29T00:11:35.250Z,7.15
2022-11-29T00:14:03.203Z,7.03
2022-11-29T00:16:31.137Z,8.00
2022-11-29T00:18:59.011Z,7.35
2022-11-29T00:21:28.299Z,7.45
2022-11-29T00:23:56.328Z,7.95
2022-11-29T00:26:24.384Z,7.95
2022-11-29T00:28:52.197Z,7.50
2022-11-29T00:31:22.202Z,6.88
2022-11-29T00:33:50.718Z,7.13
2022-11-29T00:36:19.077Z,6.97
2022-11-29T00:38:48.376Z,7.40
2022-11-29T00:41:16.604Z,7.30
2022-11-29T00:43:44.659Z,7.95
2022-11-29T00:46:12.880Z,8.20
2022-11-29T00:48:40.737Z,7.97
2022-11-29T00:51:08.682Z,7.65
2022-11-29T00:53:37.258Z,8.30
2022-11-29T00:56:07.896Z,7.53
2022-11-29T00:58:37.060Z,8.00
2022-11-29T01:01:05.944Z,7.82
2022-11-29T01:03:33.807Z,7.70
2022-11-29T01:06:03.063Z,7.78
2022-11-29T01:08:30.904Z,8.70
2022-11-29T01:11:08.889Z,7.43
2022-11-29T01:13:37.109Z,8.25
2022-11-29T01:16:06.160Z,8.10
2022-11-29T01:18:34.641Z,8.23
2022-11-29T01:21:06.363Z,7.75
2022-11-29T01:23:35.967Z,7.82
2022-11-29T01:26:07.585Z,7.95
2022-11-29T01:28:36.284Z,7.25
2022-11-29T01:31:07.526Z,7.97
2022-11-29T01:33:35.794Z,7.75
2022-11-29T01:36:04.495Z,8.02
2022-11-29T01:38:32.663Z,7.78
2022-11-29T01:41:03.511Z,7.60
2022-11-29T01:43:33.395Z,9.00
2022-11-29T01:46:01.257Z,8.52
2022-11-29T01:48:31.956Z,10.10
2022-11-29T01:51:02.350Z,8.98
2022-11-29T01:53:30.359Z,5.63
2022-11-29T01:56:03.843Z,7.03
2022-11-29T01:58:33.573Z,9.70
2022-11-29T02:01:02.386Z,9.55
2022-11-29T02:03:30.226Z,9.23
2022-11-29T02:05:58.032Z,9.20
2022-11-29T02:08:30.434Z,9.23
2022-11-29T02:11:34.715Z,8.93
2022-11-29T02:14:17.574Z,7.72
2022-11-29T02:16:59.083Z,8.85
2022-11-29T02:19:49.992Z,8.93
2022-11-29T02:22:25.293Z,8.55
2022-11-29T02:25:08.702Z,9.77
2022-11-29T02:28:24.969Z,9.25
2022-11-29T02:31:32.294Z,9.13
2022-11-29T02:34:33.170Z,8.68
2022-11-29T02:37:18.362Z,8.30
2022-11-29T02:40:01.789Z,7.65
2022-11-29T02:42:56.209Z,7.32
2022-11-29T02:45:47.281Z,7.10
2022-11-29T02:48:34.519Z,8.52
2022-11-29T02:51:12.502Z,8.65
2022-11-29T02:53:45.458Z,8.40
2022-11-29T02:56:22.605Z,8.63
2022-11-29T02:58:55.426Z,8.25
2022-11-29T03:01:29.630Z,7.65
2022-11-29T03:04:08.526Z,7.30
2022-11-29T03:06:47.714Z,8.45
2022-11-29T03:09:26.649Z,8.95
2022-11-29T03:12:05.010Z,7.45
2022-11-29T03:14:44.876Z,9.02
2022-11-29T03:17:19.366Z,9.00
2022-11-29T03:20:03.747Z,8.88
2022-11-29T03:22:42.980Z,8.98
2022-11-29T03:25:18.898Z,9.27
2022-11-29T03:27:54.068Z,9.23
2022-11-29T03:30:22.215Z,9.48
2022-11-29T03:32:58.118Z,8.38
2022-11-29T03:35:34.589Z,9.85
2022-11-29T03:38:14.133Z,9.50
2022-11-29T03:40:47.571Z,7.45
2022-11-29T03:43:19.162Z,9.57
2022-11-29T03:45:53.078Z,6.57
2022-11-29T03:48:29.644Z,9.07
2022-11-29T03:51:00.899Z,8.68
2022-11-29T03:53:37.025Z,9.88
2022-11-29T03:56:24.198Z,9.38
2022-11-29T03:58:58.340Z,8.25
2022-11-29T04:01:56.835Z,8.43
2022-11-29T04:04:57.514Z,9.57
2022-11-29T04:07:44.042Z,10.18
2022-11-29T04:10:33.956Z,9.70
2022-11-29T04:13:35.528Z,9.38
2022-11-29T04:16:42.728Z,8.82
2022-11-29T04:19:44.299Z,8.95
2022-11-29T04:22:40.343Z,9.25
2022-11-29T04:25:49.274Z,9.32
2022-11-29T04:28:42.964Z,9.82
2022-11-29T04:31:24.166Z,9.75
2022-11-29T04:34:19.724Z,10.05
2022-11-29T04:37:06.168Z,10.20
2022-11-29T04:39:57.562Z,9.05
2022-11-29T04:42:43.305Z,9.52
2022-11-29T04:45:40.693Z,9.05
2022-11-29T04:48:27.634Z,9.57
2022-11-29T04:51:04.318Z,9.55
2022-11-29T04:53:44.825Z,11.15
2022-11-29T04:56:21.512Z,10.60
2022-11-29T04:58:59.302Z,7.47
2022-11-29T05:01:34.184Z,10.77
2022-11-29T05:04:09.819Z,10.15
2022-11-29T05:06:46.095Z,10.32
2022-11-29T05:09:23.290Z,10.15
2022-11-29T05:12:05.153Z,10.70
2022-11-29T05:14:49.942Z,10.27
2022-11-29T05:17:40.987Z,10.00
2022-11-29T05:20:27.634Z,9.95
2022-11-29T05:23:16.117Z,10.90
2022-11-29T05:25:51.572Z,9.30
2022-11-29T05:28:26.739Z,10.40
2022-11-29T05:31:30.673Z,9.88
2022-11-29T05:34:22.712Z,10.60
2022-11-29T05:37:03.216Z,10.27
2022-11-29T05:39:39.916Z,11.70
2022-11-29T05:42:32.129Z,11.27
2022-11-29T05:45:05.548Z,9.93
2022-11-29T05:47:42.389Z,10.18
2022-11-29T05:50:17.165Z,10.77
2022-11-29T05:52:54.225Z,10.95
2022-11-29T05:55:33.077Z,11.00
2022-11-29T05:58:05.579Z,10.02
2022-11-29T06:00:47.591Z,11.45
2022-11-29T06:03:25.135Z,8.65
2022-11-29T06:05:58.406Z,10.25
2022-11-29T06:08:35.373Z,10.73
2022-11-29T06:11:07.169Z,10.07
2022-11-29T06:13:50.921Z,9.95
2022-11-29T06:16:50.780Z,9.23
2022-11-29T06:19:42.325Z,11.13
2022-11-29T06:22:32.052Z,10.77
2022-11-29T06:25:17.154Z,10.63
2022-11-29T06:28:04.688Z,8.48
2022-11-29T06:30:48.251Z,9.85
2022-11-29T06:33:23.133Z,9.45
2022-11-29T06:36:12.974Z,9.38
2022-11-29T06:38:41.555Z,9.02
2022-11-29T06:41:17.412Z,10.63
2022-11-29T06:43:45.909Z,9.85
2022-11-29T06:46:23.418Z,8.25
2022-11-29T06:49:00.614Z,8.90
2022-11-29T06:51:38.116Z,8.05
2022-11-29T06:54:16.799Z,8.90
2022-11-29T06:56:50.590Z,9.40
2022-11-29T06:59:35.922Z,10.15
2022-11-29T07:02:13.936Z,8.23
2022-11-29T07:04:57.577Z,9.05
2022-11-29T07:07:27.472Z,8.02
2022-11-29T07:09:59.595Z,8.52
2022-11-29T07:12:28.117Z,8.65
2022-11-29T07:14:56.837Z,9.15
2022-11-29T07:17:31.789Z,9.88
2022-11-29T07:20:11.120Z,9.35
2022-11-29T07:22:55.764Z,8.68
2022-11-29T07:25:35.374Z,10.60
2022-11-29T07:28:15.313Z,7.82
2022-11-29T07:30:52.124Z,7.78
2022-11-29T07:33:27.578Z,9.23
2022-11-29T07:36:01.196Z,7.55
2022-11-29T07:38:52.877Z,7.80
2022-11-29T07:41:28.636Z,8.40
2022-11-29T07:44:05.698Z,8.63
2022-11-29T07:46:33.555Z,7.63
2022-11-29T07:49:01.381Z,9.52
2022-11-29T07:51:29.289Z,8.80
2022-11-29T07:53:58.468Z,9.73
2022-11-29T07:56:26.285Z,8.27
2022-11-29T07:58:54.316Z,4.88
2022-11-29T08:01:22.249Z,8.07
2022-11-29T08:03:50.181Z,7.88
2022-11-29T08:06:24.023Z,9.32
2022-11-29T08:08:51.875Z,8.73
2022-11-29T08:11:21.083Z,8.15
2022-11-29T08:13:49.351Z,8.98
2022-11-29T08:16:18.582Z,8.45
2022-11-29T08:18:46.689Z,8.80
2022-11-29T08:21:17.953Z,8.50
2022-11-29T08:23:45.840Z,9.02
2022-11-29T08:26:14.506Z,8.85
2022-11-29T08:28:44.645Z,9.20
2022-11-29T08:31:14.183Z,8.30
2022-11-29T08:33:44.031Z,9.35
2022-11-29T08:36:14.390Z,7.70
2022-11-29T08:38:42.308Z,9.02
2022-11-29T08:41:12.775Z,9.65
2022-11-29T08:43:40.984Z,7.55
2022-11-29T08:46:16.699Z,7.57
2022-11-29T08:48:47.326Z,8.27
2022-11-29T08:51:15.530Z,8.48
2022-11-29T08:53:42.387Z,8.82
2022-11-29T08:56:41.776Z,9.18
2022-11-29T08:58:58.916Z,8.77
2022-11-29T09:01:29.333Z,9.15
2022-11-29T09:04:07.696Z,9.23
2022-11-29T09:06:40.779Z,9.88
2022-11-29T09:09:08.701Z,8.73
2022-11-29T09:11:37.126Z,7.75
2022-11-29T09:14:07.580Z,6.25
2022-11-29T09:16:38.773Z,8.75
2022-11-29T09:19:07.187Z,9.35
2022-11-29T09:21:36.946Z,8.48
2022-11-29T09:24:06.444Z,9.95
2022-11-29T09:26:37.946Z,9.82
2022-11-29T09:29:07.841Z,9.40
2022-11-29T09:31:37.319Z,9.25
2022-11-29T09:34:05.167Z,10.23
2022-11-29T09:36:33.035Z,10.45
2022-11-29T09:39:03.752Z,11.48
2022-11-29T09:42:00.765Z,10.45
2022-11-29T09:44:42.067Z,9.30
2022-11-29T09:47:22.858Z,10.15
2022-11-29T09:50:04.781Z,9.70
2022-11-29T09:52:47.668Z,10.07
2022-11-29T09:55:35.239Z,9.55
2022-11-29T09:58:04.626Z,11.05
2022-11-29T10:00:36.520Z,9.02
2022-11-29T10:03:18.071Z,11.43
2022-11-29T10:05:50.193Z,10.73
2022-11-29T10:08:26.111Z,9.57
2022-11-29T10:10:58.521Z,11.13
2022-11-29T10:13:29.823Z,10.82
2022-11-29T10:16:02.910Z,11.13
2022-11-29T10:18:35.555Z,10.77
2022-11-29T10:21:11.197Z,10.70
2022-11-29T10:23:44.802Z,12.10
2022-11-29T10:26:13.751Z,10.90
2022-11-29T10:28:45.066Z,12.50
2022-11-29T10:31:20.305Z,11.65
2022-11-29T10:33:50.658Z,10.55
2022-11-29T10:36:26.393Z,11.07
2022-11-29T10:38:59.342Z,11.18
2022-11-29T10:41:28.054Z,11.95
2022-11-29T10:43:59.790Z,8.30
2022-11-29T10:46:31.629Z,10.63
2022-11-29T10:49:03.724Z,10.55
2022-11-29T10:51:32.993Z,11.35
2022-11-29T10:54:17.148Z,12.43
2022-11-29T10:56:46.633Z,12.38
2022-11-29T10:59:22.554Z,9.63
2022-11-29T11:01:51.834Z,12.02
2022-11-29T11:04:28.803Z,11.98
2022-11-29T11:07:01.157Z,12.65
2022-11-29T11:09:36.430Z,11.85
2022-11-29T11:12:08.570Z,12.07
2022-11-29T11:14:38.752Z,11.80
2022-11-29T11:17:21.896Z,12.82
2022-11-29T11:19:58.376Z,11.35
2022-11-29T11:22:27.944Z,12.20
2022-11-29T11:25:01.208Z,12.88
2022-11-29T11:27:31.157Z,12.00
2022-11-29T11:29:59.339Z,11.88
2022-11-29T11:32:27.605Z,12.95
2022-11-29T11:34:58.169Z,12.50
2022-11-29T11:37:28.155Z,12.15
2022-11-29T11:39:58.196Z,13.90
2022-11-29T11:42:38.779Z,11.98
2022-11-29T11:45:24.222Z,11.85
2022-11-29T11:47:54.047Z,12.82
2022-11-29T11:50:30.422Z,10.63
2022-11-29T11:53:01.381Z,13.40
2022-11-29T11:55:34.252Z,12.60
2022-11-29T11:58:09.814Z,12.02
2022-11-29T12:01:11.518Z,11.85
2022-11-29T12:03:36.329Z,11.93
2022-11-29T12:06:24.061Z,11.57
2022-11-29T12:08:55.517Z,11.25
2022-11-29T12:11:25.181Z,12.77
2022-11-29T12:13:57.545Z,12.15
2022-11-29T12:16:30.189Z,13.82
2022-11-29T12:19:02.713Z,13.27
2022-11-29T12:21:39.517Z,14.38
2022-11-29T12:24:21.767Z,13.45
2022-11-29T12:26:57.178Z,12.68
2022-11-29T12:29:29.827Z,14.45
2022-11-29T12:32:12.523Z,13.80
2022-11-29T12:34:57.098Z,12.55
2022-11-29T12:37:33.619Z,11.30
2022-11-29T12:40:07.512Z,14.85
2022-11-29T12:42:45.728Z,13.00
2022-11-29T12:45:35.514Z,14.95
2022-11-29T12:48:18.787Z,13.75
2022-11-29T12:50:58.586Z,13.00
2022-11-29T12:53:46.336Z,14.15
2022-11-29T12:56:19.941Z,12.98
2022-11-29T12:58:57.432Z,13.85
2022-11-29T13:01:34.644Z,14.00
2022-11-29T13:04:14.244Z,12.73
2022-11-29T13:06:50.176Z,13.70
2022-11-29T13:10:01.278Z,13.85
2022-11-29T13:12:36.414Z,13.05
2022-11-29T13:15:07.941Z,12.68
2022-11-29T13:17:43.566Z,12.90
2022-11-29T13:20:23.270Z,12.77
2022-11-29T13:22:57.508Z,13.82
2022-11-29T13:25:31.849Z,11.33
2022-11-29T13:28:02.681Z,12.88
2022-11-29T13:30:30.732Z,11.30
2022-11-29T13:33:04.122Z,12.77
2022-11-29T13:35:39.896Z,10.60
2022-11-29T13:38:16.955Z,9.73
2022-11-29T13:40:55.997Z,10.20
2022-11-29T13:43:31.442Z,11.85
2022-11-29T13:46:10.543Z,13.43
2022-11-29T13:48:49.601Z,12.05
2022-11-29T13:51:33.261Z,12.48
2022-11-29T13:54:04.214Z,10.57
2022-11-29T13:56:46.496Z,12.35
2022-11-29T13:59:23.686Z,12.15
2022-11-29T14:01:53.870Z,11.35
2022-11-29T14:04:29.472Z,10.95
2022-11-29T14:07:09.141Z,12.38
2022-11-29T14:09:46.116Z,11.38
2022-11-29T14:12:31.156Z,11.38
2022-11-29T14:15:02.540Z,12.45
2022-11-29T14:17:47.958Z,11.90
2022-11-29T14:20:51.160Z,12.52
2022-11-29T14:23:33.366Z,11.35
2022-11-29T14:26:28.793Z,13.65
2022-11-29T14:28:59.052Z,11.43
2022-11-29T14:31:56.329Z,11.35
2022-11-29T14:34:39.964Z,12.60
2022-11-29T14:37:20.854Z,11.55
2022-11-29T14:39:53.691Z,11.82
2022-11-29T14:42:24.326Z,11.35
2022-11-29T14:44:56.054Z,10.77
2022-11-29T14:47:29.680Z,14.15
2022-11-29T14:49:59.705Z,12.32
2022-11-29T14:52:38.617Z,11.18
2022-11-29T14:55:09.776Z,11.30
2022-11-29T14:58:06.040Z,12.63
2022-11-29T15:00:44.566Z,12.70
2022-11-29T15:03:17.752Z,14.60
2022-11-29T15:05:58.458Z,12.60
2022-11-29T15:08:35.017Z,10.35
2022-11-29T15:11:07.979Z,12.35
2022-11-29T15:13:37.962Z,12.13
2022-11-29T15:16:29.913Z,12.18
2022-11-29T15:19:20.563Z,12.10
2022-11-29T15:21:56.476Z,12.63
2022-11-29T15:24:28.170Z,10.90
2022-11-29T15:26:57.682Z,10.75
2022-11-29T15:29:26.252Z,12.20
2022-11-29T15:31:57.948Z,12.52
2022-11-29T15:34:32.542Z,12.23
2022-11-29T15:37:00.997Z,12.25
2022-11-29T15:39:31.611Z,12.35
2022-11-29T15:42:04.881Z,13.07
2022-11-29T15:44:35.582Z,12.00
2022-11-29T15:47:23.080Z,12.07
2022-11-29T15:49:51.442Z,12.00
2022-11-29T15:52:26.026Z,12.75
2022-11-29T15:54:57.715Z,11.95
2022-11-29T15:57:29.057Z,13.57
2022-11-29T15:59:59.525Z,12.98
2022-11-29T16:02:31.390Z,13.48
2022-11-29T16:05:02.485Z,12.75
2022-11-29T16:07:34.231Z,13.63
2022-11-29T16:10:06.383Z,13.48
2022-11-29T16:12:34.308Z,11.57
2022-11-29T16:15:02.604Z,13.88
2022-11-29T16:17:34.718Z,13.82
2022-11-29T16:20:23.652Z,12.68
2022-11-29T16:23:12.676Z,13.45
2022-11-29T16:25:54.855Z,11.98
2022-11-29T16:28:23.123Z,13.52
2022-11-29T16:30:50.997Z,12.27
2022-11-29T16:33:24.413Z,11.60
2022-11-29T16:36:03.371Z,14.00
2022-11-29T16:38:31.232Z,13.25
2022-11-29T16:41:05.313Z,13.07
2022-11-29T16:43:53.749Z,14.98
2022-11-29T16:46:31.833Z,13.48
2022-11-29T16:49:25.547Z,12.57
2022-11-29T16:51:54.912Z,12.77
2022-11-29T16:54:25.100Z,12.68
2022-11-29T16:56:54.412Z,12.10
2022-11-29T16:59:27.909Z,11.98
2022-11-29T17:01:56.743Z,11.25
2022-11-29T17:04:26.217Z,12.30
2022-11-29T17:06:55.128Z,13.02
2022-11-29T17:09:26.036Z,14.98
2022-11-29T17:11:54.254Z,12.48
2022-11-29T17:14:22.100Z,12.63
2022-11-29T17:16:50.524Z,13.45
2022-11-29T17:19:19.567Z,12.98
2022-11-29T17:21:49.175Z,13.18
2022-11-29T17:24:19.565Z,14.23
2022-11-29T17:26:47.785Z,14.05
2022-11-29T17:29:17.212Z,13.98
2022-11-29T17:31:45.980Z,13.23
2022-11-29T17:34:14.184Z,12.77
2022-11-29T17:36:42.089Z,13.80
2022-11-29T17:39:11.664Z,13.48
2022-11-29T17:41:39.518Z,13.45
2022-11-29T17:44:07.364Z,13.27
2022-11-29T17:46:37.547Z,14.07
2022-11-29T17:49:07.319Z,12.57
2022-11-29T17:51:54.004Z,13.50
2022-11-29T17:54:23.829Z,12.90
2022-11-29T17:56:52.190Z,11.95
2022-11-29T17:59:20.427Z,12.57
2022-11-29T18:01:48.523Z,13.45
2022-11-29T18:04:16.543Z,13.57
2022-11-29T18:06:49.436Z,11.68
2022-11-29T18:09:18.481Z,13.18
2022-11-29T18:11:49.928Z,12.30
2022-11-29T18:14:20.647Z,13.15
2022-11-29T18:16:48.614Z,11.80
2022-11-29T18:19:18.315Z,12.82
2022-11-29T18:21:46.295Z,12.68
2022-11-29T18:24:14.391Z,13.18
2022-11-29T18:26:42.895Z,13.77
2022-11-29T18:29:12.296Z,13.13
2022-11-29T18:31:42.074Z,10.70
2022-11-29T18:34:11.209Z,12.57
2022-11-29T18:36:42.949Z,11.60
2022-11-29T18:39:13.987Z,13.00
2022-11-29T18:41:42.909Z,13.23
2022-11-29T18:44:13.892Z,11.35
2022-11-29T18:46:43.800Z,11.52
2022-11-29T18:49:13.179Z,12.15
2022-11-29T18:51:42.853Z,11.65
2022-11-29T18:54:11.444Z,12.07
2022-11-29T18:56:39.640Z,10.82
2022-11-29T18:59:10.339Z,11.50
2022-11-29T19:01:42.703Z,10.30
2022-11-29T19:04:12.610Z,10.68
2022-11-29T19:06:41.085Z,10.25
2022-11-29T19:09:12.508Z,11.70
2022-11-29T19:11:40.741Z,7.88
2022-11-29T19:14:11.415Z,9.95
2022-11-29T19:16:42.890Z,9.73
2022-11-29T19:19:11.388Z,7.18
2022-11-29T19:21:40.359Z,10.52
2022-11-29T19:24:13.941Z,9.77
2022-11-29T19:26:44.376Z,9.60
2022-11-29T19:29:12.873Z,9.52
2022-11-29T19:31:42.621Z,8.63
2022-11-29T19:34:10.608Z,9.02
2022-11-29T19:36:42.836Z,9.45
2022-11-29T19:39:12.864Z,9.07
2022-11-29T19:41:42.276Z,8.30
2022-11-29T19:44:10.110Z,9.55
2022-11-29T19:46:40.652Z,8.82
2022-11-29T19:49:10.109Z,8.65
2022-11-29T19:51:38.232Z,8.32
2022-11-29T19:54:08.508Z,8.40
2022-11-29T19:56:36.410Z,9.05
2022-11-29T19:59:04.588Z,8.98
2022-11-29T20:01:40.166Z,8.82
2022-11-29T20:04:12.423Z,8.85
2022-11-29T20:06:42.003Z,8.27
2022-11-29T20:09:10.726Z,9.20
2022-11-29T20:11:38.619Z,8.93
2022-11-29T20:14:07.620Z,8.45
2022-11-29T20:16:37.934Z,8.88
2022-11-29T20:19:11.774Z,10.00
2022-11-29T20:21:43.702Z,7.75
2022-11-29T20:24:12.942Z,9.77
2022-11-29T20:26:41.850Z,8.10
2022-11-29T20:29:11.762Z,9.48
2022-11-29T20:31:47.657Z,9.43
2022-11-29T20:34:19.929Z,8.18
2022-11-29T20:37:07.431Z,9.98
2022-11-29T20:39:43.230Z,8.70
2022-11-29T20:42:47.774Z,11.07
2022-11-29T20:45:16.836Z,8.63
2022-11-29T20:47:50.912Z,8.05
2022-11-29T20:50:23.806Z,8.40
2022-11-29T20:53:03.986Z,9.17
2022-11-29T20:55:32.156Z,9.65
2022-11-29T20:58:00.008Z,9.57
2022-11-29T21:00:27.956Z,9.18
2022-11-29T21:02:55.857Z,8.73
2022-11-29T21:05:25.221Z,8.00
2022-11-29T21:07:53.106Z,9.00
2022-11-29T21:10:21.873Z,7.82
2022-11-29T21:12:50.734Z,8.55
2022-11-29T21:15:19.503Z,8.98
2022-11-29T21:17:47.862Z,8.07
2022-11-29T21:20:19.542Z,8.88
2022-11-29T21:22:56.719Z,7.85
2022-11-29T21:25:34.851Z,9.23
2022-11-29T21:28:05.200Z,9.57
2022-11-29T21:30:33.533Z,7.55
2022-11-29T21:33:01.820Z,8.30
2022-11-29T21:35:29.646Z,7.88
2022-11-29T21:38:01.955Z,8.25
2022-11-29T21:40:29.814Z,8.10
2022-11-29T21:42:57.664Z,8.00
2022-11-29T21:45:25.536Z,8.60
2022-11-29T21:47:53.470Z,8.82
2022-11-29T21:50:21.294Z,9.32
2022-11-29T21:52:52.403Z,9.15
2022-11-29T21:55:21.613Z,9.05
2022-11-29T21:57:49.398Z,8.15
2022-11-29T22:00:18.124Z,9.85
2022-11-29T22:02:46.010Z,9.07
2022-11-29T22:05:13.872Z,9.85
2022-11-29T22:07:41.695Z,8.50
2022-11-29T22:10:13.536Z,8.48
2022-11-29T22:12:51.984Z,7.82
2022-11-29T22:15:24.831Z,9.10
2022-11-29T22:17:53.257Z,8.18
2022-11-29T22:20:21.160Z,9.68
2022-11-29T22:22:49.023Z,7.30
2022-11-29T22:25:17.390Z,8.75
2022-11-29T22:27:46.585Z,8.85
2022-11-29T22:30:14.673Z,8.63
2022-11-29T22:32:42.488Z,9.07
2022-11-29T22:35:10.576Z,8.75
2022-11-29T22:37:38.427Z,8.30
2022-11-29T22:40:07.966Z,8.93
2022-11-29T22:42:35.813Z,9.13
2022-11-29T22:45:05.554Z,7.97
2022-11-29T22:47:33.404Z,8.90
2022-11-29T22:50:01.206Z,8.00
2022-11-29T22:52:29.014Z,8.70
2022-11-29T22:54:59.969Z,8.80
2022-11-29T22:57:32.261Z,7.75
2022-11-29T23:00:00.063Z,8.30
2022-11-29T23:02:29.370Z,9.00
2022-11-29T23:04:57.197Z,8.95
2022-11-29T23:07:25.044Z,8.20
2022-11-29T23:09:55.040Z,9.13
2022-11-29T23:12:23.048Z,10.18
2022-11-29T23:14:55.994Z,8.02
2022-11-29T23:17:24.322Z,9.50
2022-11-29T23:19:53.504Z,8.30
2022-11-29T23:22:21.303Z,7.95
2022-11-29T23:24:49.207Z,8.90
2022-11-29T23:27:17.030Z,8.68
2022-11-29T23:29:44.832Z,8.90
2022-11-29T23:32:12.699Z,8.35
2022-11-29T23:34:40.537Z,9.60
2022-11-29T23:37:09.814Z,9.40
2022-11-29T23:39:37.664Z,8.27
2022-11-29T23:42:05.803Z,9.70
2022-11-29T23:44:33.632Z,9.18
2022-11-29T23:47:01.455Z,8.20
2022-11-29T23:49:29.329Z,9.05
2022-11-29T23:51:57.174Z,8.85
2022-11-29T23:54:26.355Z,10.05
2022-11-29T23:56:54.160Z,9.05
2022-11-29T23:59:22.071Z,10.02
